This is the latest recevied weather packets stored in our database for station/object K6HFP. If no packets are shown the sender has not sent any weather packets the latest 1 day(s).
| Time | Temp. | Humidity | Pressure | Rain* | Wind** | Luminosity | Snow |
|---|---|---|---|---|---|---|---|
| 1778099768 | 18.33° C | 69% | 1018.9 hPa | 0 mm | - | 381 W/m² | - |
| 1778097948 | 17.78° C | 73% | 1019.2 hPa | 0 mm | - | 307 W/m² | - |
| 1778097645 | 17.78° C | 73% | 1019.2 hPa | 0 mm | - | 260 W/m² | - |
| 1778097038 | 17.22° C | 74% | 1019.1 hPa | 0 mm | - | 243 W/m² | - |
| 1778096432 | 17.22° C | 74% | 1019.3 hPa | 0 mm | - | 232 W/m² | - |
| 1778094916 | 17.22° C | 75% | 1019.6 hPa | 0 mm | - | 302 W/m² | - |
| 1778093400 | 16.67° C | 77% | 1019.5 hPa | 0 mm | - | 281 W/m² | - |
| 1778092187 | 16.67° C | 76% | 1019.7 hPa | 0 mm | - | 348 W/m² | - |
| 1778090976 | 16.11° C | 80% | 1019.8 hPa | 0 mm | - | 279 W/m² | - |
| 1778090066 | 16.67° C | 80% | 1019.6 hPa | 0 mm | - | 251 W/m² | - |
| 1778088854 | 16.67° C | 80% | 1019.7 hPa | 0 mm | - | 358 W/m² | - |
| 1778086735 | 15.56° C | 84% | 1019.7 hPa | 0 mm | - | 438 W/m² | - |
| 1778086433 | 15.56° C | 84% | 1019.5 hPa | 0 mm | - | 392 W/m² | - |
| 1778086129 | 15.56° C | 84% | 1019.4 hPa | 0 mm | - | 350 W/m² | - |
| 1778084913 | 15° C | 86% | 1019.7 hPa | 0 mm | - | 200 W/m² | - |
| 1778084006 | 15° C | 87% | 1019.8 hPa | 0 mm | - | 173 W/m² | - |
| 1778083704 | 15° C | 86% | 1019.7 hPa | 0 mm | - | 168 W/m² | - |
| 1778081365 | 14.44° C | 89% | 1019.6 hPa | 0 mm | - | 126 W/m² | - |
| 1778079850 | 13.89° C | 91% | 1019.7 hPa | 0 mm | - | 83 W/m² | - |
| 1778077731 | 13.89° C | 89% | 1019.6 hPa | 0 mm | - | 30 W/m² | - |
| 1778075916 | 13.89° C | 87% | 1019.2 hPa | 0 mm | - | 17 W/m² | - |
| 1778074096 | 13.33° C | 88% | 1018.9 hPa | 0 mm | - | 7 W/m² | - |
| 1778073793 | 13.33° C | 88% | 1018.7 hPa | 0 mm | - | 6 W/m² | - |
| 1778073491 | 13.33° C | 88% | 1018.7 hPa | 0 mm | - | 4 W/m² | - |
| 1778073187 | 13.33° C | 88% | 1018.7 hPa | 0 mm | - | 3 W/m² | - |
* Rain latest hour (hover to see other rain measurements)
** Current wind speed in m/s (hover to see current wind gust speed)